Cold Bay Airport
PACD : rendu visible

Aérodrome :











RETROUVEZ-NOUS SUR...

 
LOGIN :

S'inscrire | Disclaimer

   EN    FR    IT 

 









Légende :    VFR   VFR Marginal   IFR   IFR Intensif   IFR Très Intensif
Visi : 
Plafond : 
>= 8 km
>= 3000ft
5 à 8 km
1000 à 3000 ft
1500m à 5 km
500 à 1000 ft
800 à 1500m
200 à 500 ft
< 800m
< 200 ft
Symboles :   Orages  Brouillard  Fortes neiges  Fortes précipitations  Vent > 20 kt






- Altitude de l'aérodrome : 96 ft
- Code IATA : CDB


PACD - Cold Bay

DERNIER METAR :
  • 120953Z AUTO 16007KT 10SM OVC013 10/08 A2977 RMK AO2 SLP080 T01000078 TSNO

METARs EXPIRÉS :
  • 120853Z AUTO 17010KT 10SM OVC013 10/08 A2977 RMK AO2 SLP081 T01000078 401560094 50001 TSNO
  • 120753Z AUTO 15007KT 10SM OVC012 11/08 A2977 RMK AO2 SLP081 T01060078 TSNO

TAF PACD
Valide du 12 à 06h jusqu'au 13 à 06h UTC


120540Z 1206/1306 14008KT P6SM OVC015
FIR PAZA / Amérique du Nord



MET'MAP, la Météo Aéronautique d'un coup d'oeil ! - Copyright ORBIFLY Décembre 2007 - Disclaimer

ORBIFLY MET'MAP TEAM :

Programmation & Développement : Alexandra Zaïnal
Sur une idée originale de : Baudouin d'Aumeries
Assistance à la programmation : Marc-Olivier Méhu
Soutien technique & logistique : Manuel Goepfert

Contact : metmap@orbifly.com




SOURCES & CREDITS :

   NOAA       Earth
Advisory